ROTAER D-AMDT 27/20 Ver Mudanças

PLATAFORMA P-20 ( SBMM ) / MACAÉ, RJ 22 21 26S/040 05 025W
HD PRIV Petrobrás UTC-3 HJ 38 (125)
SBCW (CINDACTA 2)

RMK -

REGULAMENTOS PARA TRÁFEGO LOCAL
  1. OPS HEL TKOF DA AREA DE RESPONSABILIDADE DAS RDO ENCHOVA, RDO MARLIM E RDO ALBACORA DEVERAO APRESENTAR PVC NO AD DE ORIGEM NO CONTINENTE E HEL REALIZANDO FLT TRANSLADO BTN AS PLATAFORMAS PODERAO APRESENTAR PLN VIA RADIOTELEFONIA PARA AS RDO ENCHOVA, RDO MARLIM E RDO ALBACORA
TEMP (0)

Suplementos AIP (0)

NOTAM (1)

CNS

Z0955/20 R Z2105/18 12/07/2020 16:27
NDB MAR 375.00KHZ RETIRADO
REF: AIP-BRASIL ENR 6 L2/H2


Nascer/Por do Sol

09:11

20:21


METAR

041400Z AUTO 10009KT 9999 SCT048 22/13 Q1029 W24/S4=

TAF


Cartas (2)

IAC


SID



Rotas Preferenciais (0)